createdAt,value
2023-12-11T00:00:32.555Z,99515.44
2023-12-11T00:01:37.613Z,99519.78
2023-12-11T00:02:45.936Z,99512.78
2023-12-11T00:03:51.773Z,99503.00
2023-12-11T00:04:58.799Z,99504.81
2023-12-11T00:06:04.014Z,99504.81
2023-12-11T00:07:10.290Z,99503.00
2023-12-11T00:08:14.323Z,99497.53
2023-12-11T00:09:21.026Z,99492.34
2023-12-11T00:10:24.927Z,99502.00
2023-12-11T00:11:31.424Z,99496.69
2023-12-11T00:12:38.012Z,99491.38
2023-12-11T00:13:47.327Z,99495.00
2023-12-11T00:14:50.666Z,99485.56
2023-12-11T00:15:57.211Z,99488.88
2023-12-11T00:17:01.153Z,99486.22
2023-12-11T00:18:07.852Z,99485.38
2023-12-11T00:19:12.534Z,99478.44
2023-12-11T00:20:19.393Z,99478.44
2023-12-11T00:21:23.549Z,99485.38
2023-12-11T00:22:30.059Z,99476.59
2023-12-11T00:23:34.068Z,99465.13
2023-12-11T00:24:40.532Z,99469.44
2023-12-11T00:25:47.462Z,99469.44
2023-12-11T00:26:53.921Z,99470.28
2023-12-11T00:27:59.588Z,99462.47
2023-12-11T00:29:09.089Z,99460.66
2023-12-11T00:30:15.373Z,99458.00
2023-12-11T00:31:22.156Z,99454.50
2023-12-11T00:32:26.195Z,99450.03
2023-12-11T00:33:32.866Z,99443.69
2023-12-11T00:34:37.229Z,99442.03
2023-12-11T00:35:44.797Z,99438.38
2023-12-11T00:36:49.018Z,99430.41
2023-12-11T00:37:55.650Z,99423.28
2023-12-11T00:39:00.117Z,99425.09
2023-12-11T00:40:08.532Z,99422.44
2023-12-11T00:41:12.408Z,99423.44
2023-12-11T00:42:19.295Z,99414.66
2023-12-11T00:43:23.218Z,99415.47
2023-12-11T00:44:32.304Z,99412.81
2023-12-11T00:45:36.255Z,99408.34
2023-12-11T00:46:42.997Z,99404.84
2023-12-11T00:47:46.945Z,99399.53
2023-12-11T00:48:54.955Z,99396.88
2023-12-11T00:49:59.349Z,99395.88
2023-12-11T00:51:06.189Z,99394.22
2023-12-11T00:52:10.347Z,99387.06
2023-12-11T00:53:17.017Z,99386.25
2023-12-11T00:54:20.425Z,99383.59
2023-12-11T00:55:27.364Z,99386.41
2023-12-11T00:56:31.434Z,99371.31
2023-12-11T00:57:37.898Z,99370.44
2023-12-11T00:58:42.121Z,99374.78
2023-12-11T00:59:51.198Z,99366.97
2023-12-11T01:00:55.145Z,99365.13
2023-12-11T01:02:01.718Z,99366.81
2023-12-11T01:03:05.583Z,99363.34
2023-12-11T01:04:12.471Z,99359.81
2023-12-11T01:05:16.447Z,99357.16
2023-12-11T01:06:22.927Z,99346.53
2023-12-11T01:07:26.907Z,99356.19
2023-12-11T01:08:34.931Z,99341.91
2023-12-11T01:09:38.820Z,99350.69
2023-12-11T01:10:45.342Z,99344.56
2023-12-11T01:11:49.171Z,99339.25
2023-12-11T01:12:55.686Z,99343.72
2023-12-11T01:13:59.610Z,99330.44
2023-12-11T01:15:10.459Z,99332.09
2023-12-11T01:16:14.580Z,99327.78
2023-12-11T01:17:37.691Z,99320.66
2023-12-11T01:18:44.528Z,99320.66
2023-12-11T01:19:51.053Z,99324.13
2023-12-11T01:20:55.361Z,99318.81
2023-12-11T01:22:01.857Z,99315.19
2023-12-11T01:23:06.203Z,99317.84
2023-12-11T01:24:12.612Z,99317.84
2023-12-11T01:25:16.529Z,99314.31
2023-12-11T01:26:22.948Z,99316.00
2023-12-11T01:27:26.111Z,99306.19
2023-12-11T01:28:30.056Z,99303.53
2023-12-11T01:29:36.532Z,99303.69
2023-12-11T01:30:43.052Z,99303.69
2023-12-11T01:31:49.536Z,99293.94
2023-12-11T01:32:53.376Z,99293.75
2023-12-11T01:33:59.901Z,99282.28
2023-12-11T01:35:04.093Z,99288.44
2023-12-11T01:36:09.640Z,99283.13
2023-12-11T01:37:16.070Z,99281.28
2023-12-11T01:38:20.073Z,99281.13
2023-12-11T01:39:26.538Z,99286.59
2023-12-11T01:40:30.395Z,99283.94
2023-12-11T01:41:36.833Z,99288.44
2023-12-11T01:42:40.698Z,99281.28
2023-12-11T01:43:55.657Z,99284.94
2023-12-11T01:44:59.517Z,99284.13
2023-12-11T01:46:13.831Z,99276.97
2023-12-11T01:47:18.261Z,99271.81
2023-12-11T01:48:22.355Z,99271.81
2023-12-11T01:49:29.281Z,99268.19
2023-12-11T01:50:33.597Z,99266.34
2023-12-11T01:51:40.707Z,99261.03
2023-12-11T01:52:45.056Z,99254.06
2023-12-11T01:53:54.807Z,99253.22
2023-12-11T01:54:58.749Z,99252.38
2023-12-11T01:56:05.115Z,99249.91
2023-12-11T01:57:10.048Z,99256.72
2023-12-11T01:58:17.669Z,99245.25
2023-12-11T01:59:21.910Z,99270.84
2023-12-11T02:00:28.779Z,99269.16
2023-12-11T02:01:37.907Z,99256.88
2023-12-11T02:02:45.658Z,99254.41
2023-12-11T02:03:52.283Z,99246.25
2023-12-11T02:04:59.045Z,99247.06
2023-12-11T02:06:02.925Z,99245.41
2023-12-11T02:07:09.765Z,99237.44
2023-12-11T02:08:15.646Z,99240.09
2023-12-11T02:09:22.232Z,99240.09
2023-12-11T02:10:26.318Z,99228.66
2023-12-11T02:11:32.751Z,99232.13
2023-12-11T02:12:37.084Z,99232.97
2023-12-11T02:13:44.417Z,99232.13
2023-12-11T02:14:48.248Z,99227.84
2023-12-11T02:15:55.068Z,99222.53
2023-12-11T02:17:01.699Z,99221.50
2023-12-11T02:18:08.624Z,99226.81
2023-12-11T02:19:12.598Z,99218.03
2023-12-11T02:20:19.159Z,99215.38
2023-12-11T02:21:23.411Z,99204.91
2023-12-11T02:22:30.805Z,99206.56
2023-12-11T02:23:48.335Z,99203.91
2023-12-11T02:25:02.971Z,99204.75
2023-12-11T02:26:16.341Z,99201.25
2023-12-11T02:27:23.899Z,99200.41
2023-12-11T02:28:27.764Z,99192.44
2023-12-11T02:29:34.225Z,99191.47
2023-12-11T02:30:38.979Z,99194.94
2023-12-11T02:31:45.579Z,99191.59
2023-12-11T02:32:52.430Z,99186.28
2023-12-11T02:33:59.010Z,99173.84
2023-12-11T02:35:02.927Z,99178.31
2023-12-11T02:36:10.700Z,99179.16
2023-12-11T02:37:14.638Z,99180.97
2023-12-11T02:38:20.758Z,99186.28
2023-12-11T02:39:24.330Z,99181.81
2023-12-11T02:40:30.802Z,99177.34
2023-12-11T02:41:37.240Z,99164.88
2023-12-11T02:42:50.988Z,99165.88
2023-12-11T02:43:54.017Z,99177.34
2023-12-11T02:45:00.473Z,99175.50
2023-12-11T02:46:05.252Z,99173.84
2023-12-11T02:47:10.969Z,99178.16
2023-12-11T02:48:15.731Z,99171.84
2023-12-11T02:49:22.404Z,99170.19
2023-12-11T02:50:26.308Z,99171.03
2023-12-11T02:51:32.823Z,99165.72
2023-12-11T02:52:36.727Z,99169.19
2023-12-11T02:53:43.148Z,99168.38
2023-12-11T02:54:46.948Z,99171.84
2023-12-11T02:55:53.408Z,99165.72
2023-12-11T02:56:59.860Z,99168.38
2023-12-11T02:58:08.062Z,99164.69
2023-12-11T02:59:12.049Z,99163.88
2023-12-11T03:00:19.156Z,99159.38
2023-12-11T03:01:23.084Z,99159.25
2023-12-11T03:02:29.582Z,99159.25
2023-12-11T03:03:33.664Z,99156.56
2023-12-11T03:04:40.243Z,99161.06
2023-12-11T03:05:44.245Z,99166.38
2023-12-11T03:06:50.782Z,99162.72
2023-12-11T03:07:54.740Z,99163.72
2023-12-11T03:09:03.889Z,99173.50
2023-12-11T03:10:09.882Z,99168.03
2023-12-11T03:11:16.442Z,99166.38
2023-12-11T03:12:22.982Z,99176.00
2023-12-11T03:13:29.446Z,99176.66
2023-12-11T03:14:33.388Z,99167.84
2023-12-11T03:15:39.837Z,99170.50
2023-12-11T03:16:48.097Z,99160.88
2023-12-11T03:17:54.585Z,99162.72
2023-12-11T03:18:58.521Z,99169.69
2023-12-11T03:20:06.772Z,99181.31
2023-12-11T03:21:10.653Z,99174.16
2023-12-11T03:22:17.215Z,99176.81
2023-12-11T03:23:21.187Z,99173.16
2023-12-11T03:24:27.630Z,99172.34
2023-12-11T03:25:31.480Z,99176.00
2023-12-11T03:26:37.930Z,99179.47
2023-12-11T03:27:44.585Z,99181.31
2023-12-11T03:28:51.040Z,99184.66
2023-12-11T03:29:54.780Z,99182.00
2023-12-11T03:31:01.272Z,99182.97
2023-12-11T03:32:06.333Z,99182.97
2023-12-11T03:33:12.984Z,99181.31
2023-12-11T03:34:17.062Z,99179.47
2023-12-11T03:35:23.537Z,99179.66
2023-12-11T03:36:27.359Z,99181.47
2023-12-11T03:37:32.964Z,99191.94
2023-12-11T03:38:37.038Z,99197.25
2023-12-11T03:39:40.291Z,99188.47
2023-12-11T03:40:50.182Z,99200.75
2023-12-11T03:41:54.112Z,99191.94
2023-12-11T03:43:03.294Z,99193.59
2023-12-11T03:44:07.156Z,99203.41
2023-12-11T03:45:13.874Z,99203.25
2023-12-11T03:46:17.774Z,99199.72
2023-12-11T03:47:25.448Z,99207.69
2023-12-11T03:48:28.852Z,99207.69
2023-12-11T03:49:35.514Z,99200.75
2023-12-11T03:50:39.401Z,99207.69
2023-12-11T03:51:45.923Z,99200.75
2023-12-11T03:52:49.786Z,99205.03
2023-12-11T03:53:56.285Z,99203.25
2023-12-11T03:55:00.273Z,99201.56
2023-12-11T03:56:07.517Z,99210.34
2023-12-11T03:57:11.384Z,99193.59
2023-12-11T03:58:20.530Z,99190.78
2023-12-11T03:59:24.940Z,99204.06
2023-12-11T04:00:31.482Z,99214.84
2023-12-11T04:01:35.586Z,99221.84
2023-12-11T04:02:42.213Z,99226.16
2023-12-11T04:03:46.198Z,99226.16
2023-12-11T04:04:49.665Z,99234.94
2023-12-11T04:05:56.271Z,99231.47
2023-12-11T04:07:00.573Z,99237.41
2023-12-11T04:08:07.426Z,99224.31
2023-12-11T04:09:11.248Z,99237.59
2023-12-11T04:10:17.948Z,99239.25
2023-12-11T04:11:21.939Z,99230.31
2023-12-11T04:12:28.612Z,99230.31
2023-12-11T04:13:35.043Z,99234.75
2023-12-11T04:14:41.540Z,99233.78
2023-12-11T04:15:45.809Z,99236.44
2023-12-11T04:16:52.224Z,99232.97
2023-12-11T04:17:56.081Z,99233.13
2023-12-11T04:19:02.675Z,99231.13
2023-12-11T04:20:08.088Z,99225.81
2023-12-11T04:21:14.596Z,99228.47
2023-12-11T04:22:18.477Z,99232.78
2023-12-11T04:23:24.948Z,99234.63
2023-12-11T04:24:28.787Z,99230.13
2023-12-11T04:25:35.346Z,99229.28
2023-12-11T04:26:39.251Z,99233.59
2023-12-11T04:27:45.705Z,99238.91
2023-12-11T04:28:52.121Z,99231.78
2023-12-11T04:29:58.575Z,99240.59
2023-12-11T04:31:02.455Z,99243.41
2023-12-11T04:32:10.019Z,99243.41
2023-12-11T04:33:14.052Z,99245.91
2023-12-11T04:34:20.575Z,99245.91
2023-12-11T04:35:24.417Z,99245.91
2023-12-11T04:36:30.873Z,99246.75
2023-12-11T04:37:34.716Z,99255.69
2023-12-11T04:38:41.158Z,99248.56
2023-12-11T04:39:45.437Z,99245.91
2023-12-11T04:40:49.279Z,99249.41
2023-12-11T04:41:55.700Z,99257.53
2023-12-11T04:42:59.591Z,99253.03
2023-12-11T04:44:08.714Z,99256.53
2023-12-11T04:45:12.729Z,99257.53
2023-12-11T04:46:19.255Z,99262.00
2023-12-11T04:47:23.201Z,99262.00
2023-12-11T04:48:27.294Z,99257.69
2023-12-11T04:49:33.978Z,99262.00
2023-12-11T04:50:37.895Z,99262.00
2023-12-11T04:51:44.378Z,99262.84
2023-12-11T04:52:48.669Z,99273.47
2023-12-11T04:53:51.629Z,99276.13
2023-12-11T04:54:58.821Z,99274.28
2023-12-11T04:56:07.906Z,99280.47
2023-12-11T04:57:14.124Z,99268.16
2023-12-11T04:58:17.525Z,99257.53
2023-12-11T04:59:26.560Z,99269.84
2023-12-11T05:00:30.512Z,99269.84
2023-12-11T05:01:37.060Z,99275.97
2023-12-11T05:02:40.951Z,99275.31
2023-12-11T05:03:47.972Z,99275.16
2023-12-11T05:04:51.882Z,99272.63
2023-12-11T05:05:58.356Z,99270.81
2023-12-11T05:07:02.200Z,99268.97
2023-12-11T05:08:08.850Z,99279.44
2023-12-11T05:09:11.962Z,99277.81
2023-12-11T05:10:18.785Z,99292.75
2023-12-11T05:11:23.346Z,99288.44
2023-12-11T05:12:29.773Z,99287.44
2023-12-11T05:13:33.624Z,99292.75
2023-12-11T05:14:42.835Z,99289.06
2023-12-11T05:15:46.728Z,99287.44
2023-12-11T05:16:53.406Z,99286.25
2023-12-11T05:17:57.369Z,99288.94
2023-12-11T05:19:03.854Z,99286.25
2023-12-11T05:20:10.205Z,99287.25
2023-12-11T05:21:16.665Z,99296.06
2023-12-11T05:22:20.559Z,99297.72
2023-12-11T05:23:27.010Z,99291.59
2023-12-11T05:24:30.868Z,99289.75
2023-12-11T05:25:37.329Z,99283.75
2023-12-11T05:26:41.426Z,99282.13
2023-12-11T05:27:47.883Z,99287.25
2023-12-11T05:28:52.150Z,99290.91
2023-12-11T05:30:01.191Z,99292.56
2023-12-11T05:31:05.638Z,99290.75
2023-12-11T05:32:14.140Z,99292.75
2023-12-11T05:33:18.120Z,99297.88
2023-12-11T05:34:24.713Z,99296.91
2023-12-11T05:35:28.654Z,99293.41
2023-12-11T05:36:35.340Z,99298.72
2023-12-11T05:37:39.389Z,99294.38
2023-12-11T05:38:46.007Z,99296.91
2023-12-11T05:39:57.802Z,99288.25
2023-12-11T05:41:16.461Z,99295.22
2023-12-11T05:42:20.314Z,99291.59
2023-12-11T05:43:26.712Z,99289.75
2023-12-11T05:44:30.630Z,99290.56
2023-12-11T05:45:39.808Z,99297.72
2023-12-11T05:46:43.731Z,99297.72
2023-12-11T05:47:50.435Z,99291.41
2023-12-11T05:48:54.362Z,99297.72
2023-12-11T05:49:58.434Z,99300.19
2023-12-11T05:51:04.960Z,99296.72
2023-12-11T05:52:08.076Z,99301.22
2023-12-11T05:53:14.662Z,99298.38
2023-12-11T05:54:18.466Z,99293.91
2023-12-11T05:55:24.916Z,99303.53
2023-12-11T05:56:28.841Z,99301.69
2023-12-11T05:57:35.442Z,99301.88
2023-12-11T05:58:39.556Z,99308.03
2023-12-11T05:59:48.584Z,99314.16
2023-12-11T06:00:55.145Z,99308.84
2023-12-11T06:02:01.728Z,99313.34
2023-12-11T06:03:05.716Z,99303.69
2023-12-11T06:04:12.239Z,99310.69
2023-12-11T06:05:16.529Z,99312.50
2023-12-11T06:06:22.957Z,99309.00
2023-12-11T06:07:26.819Z,99308.84
2023-12-11T06:08:34.145Z,99315.16
2023-12-11T06:09:38.389Z,99308.16
2023-12-11T06:10:44.821Z,99313.50
2023-12-11T06:11:48.693Z,99307.34
2023-12-11T06:12:55.175Z,99308.16
2023-12-11T06:13:59.068Z,99308.16
2023-12-11T06:15:05.639Z,99314.50
2023-12-11T06:16:12.653Z,99309.19
2023-12-11T06:17:19.240Z,99309.19
2023-12-11T06:18:23.187Z,99308.34
2023-12-11T06:19:29.762Z,99313.66
2023-12-11T06:20:33.678Z,99310.00
2023-12-11T06:21:42.281Z,99322.28
2023-12-11T06:22:48.386Z,99317.16
2023-12-11T06:23:55.155Z,99311.84
2023-12-11T06:24:59.027Z,99305.50
2023-12-11T06:26:04.543Z,99307.34
2023-12-11T06:27:08.748Z,99305.50
2023-12-11T06:28:15.298Z,99308.16
2023-12-11T06:29:19.185Z,99310.84
2023-12-11T06:30:24.910Z,99315.31
2023-12-11T06:31:32.014Z,99310.19
2023-12-11T06:32:41.760Z,99315.31
2023-12-11T06:33:45.941Z,99311.84
2023-12-11T06:34:52.780Z,99324.13
2023-12-11T06:35:56.672Z,99317.81
2023-12-11T06:37:03.411Z,99320.50
2023-12-11T06:38:06.868Z,99320.50
2023-12-11T06:39:13.358Z,99320.50
2023-12-11T06:40:17.587Z,99320.50
2023-12-11T06:41:24.545Z,99319.63
2023-12-11T06:42:28.410Z,99330.94
2023-12-11T06:43:36.892Z,99322.13
2023-12-11T06:44:40.838Z,99323.97
2023-12-11T06:45:47.555Z,99319.63
2023-12-11T06:46:54.783Z,99324.94
2023-12-11T06:48:01.430Z,99323.97
2023-12-11T06:49:05.381Z,99323.97
2023-12-11T06:50:13.984Z,99323.16
2023-12-11T06:51:18.294Z,99331.13
2023-12-11T06:52:24.778Z,99326.78
2023-12-11T06:53:28.718Z,99329.28
2023-12-11T06:54:35.274Z,99329.28
2023-12-11T06:55:39.226Z,99325.81
2023-12-11T06:56:45.979Z,99331.13
2023-12-11T06:57:49.857Z,99327.59
2023-12-11T06:58:56.372Z,99330.94
2023-12-11T07:00:03.524Z,99331.94
2023-12-11T07:01:13.674Z,99331.94
2023-12-11T07:02:20.307Z,99330.25
2023-12-11T07:03:27.223Z,99326.63
2023-12-11T07:04:31.347Z,99331.13
2023-12-11T07:05:38.163Z,99336.25
2023-12-11T07:06:42.129Z,99342.56
2023-12-11T07:07:48.584Z,99331.13
2023-12-11T07:08:52.493Z,99340.06
2023-12-11T07:10:05.140Z,99331.13
2023-12-11T07:11:09.164Z,99339.09
2023-12-11T07:12:15.656Z,99343.53
2023-12-11T07:13:19.996Z,99342.56
2023-12-11T07:14:26.923Z,99339.09
2023-12-11T07:15:31.239Z,99339.91
2023-12-11T07:16:38.856Z,99345.22
2023-12-11T07:17:45.335Z,99350.38
2023-12-11T07:18:51.888Z,99346.72
2023-12-11T07:19:55.817Z,99347.72
2023-12-11T07:21:02.339Z,99342.25
2023-12-11T07:22:06.271Z,99344.91
2023-12-11T07:23:14.117Z,99349.22
2023-12-11T07:24:17.984Z,99348.38
2023-12-11T07:25:24.508Z,99352.69
2023-12-11T07:26:28.422Z,99349.22
2023-12-11T07:27:35.404Z,99352.53
2023-12-11T07:28:40.166Z,99359.84
2023-12-11T07:29:46.664Z,99353.69
2023-12-11T07:30:50.657Z,99362.50
2023-12-11T07:31:57.121Z,99357.19
2023-12-11T07:33:04.055Z,99362.50
2023-12-11T07:34:10.701Z,99367.00
2023-12-11T07:35:14.805Z,99372.31
2023-12-11T07:36:22.046Z,99369.66
2023-12-11T07:37:25.916Z,99364.47
2023-12-11T07:38:32.632Z,99366.16
2023-12-11T07:39:36.524Z,99360.84
2023-12-11T07:40:43.031Z,99369.66
2023-12-11T07:41:46.918Z,99365.16
2023-12-11T07:42:53.803Z,99367.81
2023-12-11T07:43:57.654Z,99363.50
2023-12-11T07:45:06.353Z,99370.47
2023-12-11T07:46:17.605Z,99371.47
2023-12-11T07:47:24.203Z,99370.66
2023-12-11T07:48:32.091Z,99362.69
2023-12-11T07:49:38.903Z,99366.16
2023-12-11T07:50:43.124Z,99365.97
2023-12-11T07:51:49.616Z,99363.31
2023-12-11T07:52:53.712Z,99365.16
2023-12-11T07:54:00.551Z,99362.34
2023-12-11T07:55:05.768Z,99359.50
2023-12-11T07:56:21.745Z,99358.50
2023-12-11T07:57:26.597Z,99367.97
2023-12-11T07:58:33.419Z,99363.34
2023-12-11T07:59:37.262Z,99359.66
2023-12-11T08:00:43.807Z,99360.50
2023-12-11T08:01:49.357Z,99355.84
2023-12-11T08:02:55.900Z,99355.84
2023-12-11T08:04:02.842Z,99363.00
2023-12-11T08:05:11.396Z,99363.81
2023-12-11T08:06:15.646Z,99363.81
2023-12-11T08:07:22.588Z,99362.66
2023-12-11T08:08:26.492Z,99360.84
2023-12-11T08:09:32.654Z,99354.50
2023-12-11T08:10:36.459Z,99360.84
2023-12-11T08:11:42.921Z,99365.31
2023-12-11T08:12:52.175Z,99365.31
2023-12-11T08:13:59.257Z,99361.47
2023-12-11T08:15:04.408Z,99367.66
2023-12-11T08:16:11.480Z,99364.13
2023-12-11T08:17:15.263Z,99365.00
2023-12-11T08:18:21.774Z,99365.81
2023-12-11T08:19:28.414Z,99362.47
2023-12-11T08:20:35.602Z,99359.00
2023-12-11T08:21:39.560Z,99364.13
2023-12-11T08:22:46.051Z,99363.31
2023-12-11T08:23:50.123Z,99365.97
2023-12-11T08:24:57.143Z,99362.34
2023-12-11T08:26:01.153Z,99369.31
2023-12-11T08:27:09.259Z,99362.16
2023-12-11T08:28:13.286Z,99363.81
2023-12-11T08:29:20.003Z,99358.47
2023-12-11T08:30:23.834Z,99356.84
2023-12-11T08:31:30.253Z,99362.81
2023-12-11T08:32:34.145Z,99359.97
2023-12-11T08:33:40.737Z,99357.00
2023-12-11T08:34:47.334Z,99347.50
2023-12-11T08:35:55.056Z,99359.81
2023-12-11T08:36:59.549Z,99353.34
2023-12-11T08:38:06.089Z,99363.66
2023-12-11T08:39:10.863Z,99355.81
2023-12-11T08:40:17.676Z,99349.50
2023-12-11T08:41:21.592Z,99362.78
2023-12-11T08:42:28.339Z,99366.47
2023-12-11T08:43:32.374Z,99366.66
2023-12-11T08:44:38.806Z,99361.31
2023-12-11T08:45:42.917Z,99352.50
2023-12-11T08:46:46.802Z,99358.66
2023-12-11T08:47:53.319Z,99347.84
2023-12-11T08:48:57.368Z,99350.50
2023-12-11T08:50:06.988Z,99348.84
2023-12-11T08:51:10.887Z,99351.50
2023-12-11T08:52:17.376Z,99353.34
2023-12-11T08:53:21.392Z,99348.19
2023-12-11T08:54:27.826Z,99349.00
2023-12-11T08:55:32.166Z,99344.69
2023-12-11T08:56:38.706Z,99348.19
2023-12-11T08:57:44.087Z,99356.31
2023-12-11T08:58:50.700Z,99341.34
2023-12-11T08:59:54.614Z,99345.81
2023-12-11T09:00:58.648Z,99347.34
2023-12-11T09:02:05.326Z,99335.84
2023-12-11T09:03:09.358Z,99344.69
2023-12-11T09:04:15.991Z,99338.53
2023-12-11T09:05:22.613Z,99341.03
2023-12-11T09:06:29.178Z,99337.69
2023-12-11T09:07:33.399Z,99339.38
2023-12-11T09:08:40.095Z,99342.53
2023-12-11T09:09:43.961Z,99344.03
2023-12-11T09:10:50.467Z,99339.38
2023-12-11T09:11:54.371Z,99342.50
2023-12-11T09:13:01.176Z,99339.66
2023-12-11T09:14:05.096Z,99349.97
2023-12-11T09:15:13.308Z,99348.97
2023-12-11T09:16:17.169Z,99352.09
2023-12-11T09:17:23.623Z,99351.94
2023-12-11T09:18:27.811Z,99349.28
2023-12-11T09:19:44.195Z,99347.31
2023-12-11T09:20:55.506Z,99345.28
2023-12-11T09:22:02.079Z,99353.09
2023-12-11T09:23:05.988Z,99345.94
2023-12-11T09:24:11.394Z,99345.94
2023-12-11T09:25:18.111Z,99350.09
2023-12-11T09:26:21.956Z,99350.09
2023-12-11T09:27:28.630Z,99348.06
2023-12-11T09:28:37.933Z,99349.63
2023-12-11T09:29:59.836Z,99339.31
2023-12-11T09:31:14.876Z,99353.59
2023-12-11T09:32:29.874Z,99339.47
2023-12-11T09:33:45.036Z,99342.13
2023-12-11T09:34:56.800Z,99340.28
2023-12-11T09:36:17.368Z,99341.78
2023-12-11T09:37:37.841Z,99337.13
2023-12-11T09:38:57.056Z,99343.78
2023-12-11T09:40:17.844Z,99348.06
2023-12-11T09:41:36.374Z,99341.44
2023-12-11T09:42:57.508Z,99335.75
2023-12-11T09:44:15.418Z,99334.75
2023-12-11T09:45:36.616Z,99334.41
2023-12-11T09:47:09.137Z,99328.56
2023-12-11T09:48:20.874Z,99337.22
2023-12-11T09:49:27.889Z,99337.22
2023-12-11T09:50:36.522Z,99328.88
2023-12-11T09:51:43.332Z,99339.00
2023-12-11T09:52:47.288Z,99341.97
2023-12-11T09:53:57.519Z,99336.47
2023-12-11T09:55:00.631Z,99332.63
2023-12-11T09:56:09.077Z,99340.47
2023-12-11T09:57:16.247Z,99343.59
2023-12-11T09:58:26.377Z,99339.75
2023-12-11T09:59:31.659Z,99338.75
2023-12-11T10:00:40.027Z,99337.38
2023-12-11T10:01:44.087Z,99339.88
2023-12-11T10:02:54.958Z,99346.66
2023-12-11T10:03:59.021Z,99341.00
2023-12-11T10:05:09.146Z,99343.50
2023-12-11T10:06:12.841Z,99342.31
2023-12-11T10:07:22.718Z,99339.47
2023-12-11T10:08:26.809Z,99338.31
2023-12-11T10:09:35.556Z,99338.13
2023-12-11T10:10:40.698Z,99340.44
2023-12-11T10:12:04.291Z,99339.28
2023-12-11T10:13:08.498Z,99344.44
2023-12-11T10:14:16.511Z,99339.75
2023-12-11T10:15:21.746Z,99342.25
2023-12-11T10:16:30.966Z,99342.06
2023-12-11T10:17:37.602Z,99342.72
2023-12-11T10:18:49.947Z,99339.69
2023-12-11T10:19:56.858Z,99343.84
2023-12-11T10:21:01.284Z,99341.00
2023-12-11T10:22:07.886Z,99333.00
2023-12-11T10:23:16.660Z,99342.47
2023-12-11T10:24:23.859Z,99343.13
2023-12-11T10:25:29.295Z,99333.94
2023-12-11T10:26:36.880Z,99336.59
2023-12-11T10:27:41.204Z,99330.91
2023-12-11T10:28:47.776Z,99334.41
2023-12-11T10:30:09.237Z,99323.75
2023-12-11T10:31:15.734Z,99319.09
2023-12-11T10:32:29.362Z,99324.25
2023-12-11T10:33:36.460Z,99319.75
2023-12-11T10:34:47.551Z,99325.06
2023-12-11T10:35:52.342Z,99324.88
2023-12-11T10:36:58.972Z,99318.53
2023-12-11T10:38:03.258Z,99319.19
2023-12-11T10:39:15.183Z,99319.19
2023-12-11T10:40:19.446Z,99320.84
2023-12-11T10:41:30.075Z,99312.84
2023-12-11T10:42:36.300Z,99310.00
2023-12-11T10:44:55.604Z,99321.34
2023-12-11T10:46:02.598Z,99316.00
2023-12-11T10:47:06.816Z,99313.97
2023-12-11T10:48:13.125Z,99309.81
2023-12-11T10:49:18.459Z,99305.03
2023-12-11T10:50:24.927Z,99306.88
2023-12-11T10:51:30.405Z,99311.19
2023-12-11T10:52:37.777Z,99313.84
2023-12-11T10:53:41.557Z,99302.19
2023-12-11T10:54:50.682Z,99297.69
2023-12-11T10:55:58.451Z,99303.19
2023-12-11T10:57:03.818Z,99296.38
2023-12-11T10:58:12.098Z,99300.06
2023-12-11T10:59:16.811Z,99298.22
2023-12-11T11:00:23.999Z,99296.56
2023-12-11T11:01:28.870Z,99285.91
2023-12-11T11:02:38.257Z,99293.72
2023-12-11T11:03:42.507Z,99294.94
2023-12-11T11:04:51.714Z,99278.28
2023-12-11T11:05:56.935Z,99280.28
2023-12-11T11:07:11.773Z,99285.44
2023-12-11T11:08:34.596Z,99277.63
2023-12-11T11:10:01.413Z,99277.00
2023-12-11T11:11:25.260Z,99271.81
2023-12-11T11:12:43.988Z,99276.31
2023-12-11T11:14:26.065Z,99274.47
2023-12-11T11:15:32.733Z,99274.31
2023-12-11T11:16:53.543Z,99270.81
2023-12-11T11:18:05.406Z,99271.81
2023-12-11T11:19:10.318Z,99268.13
2023-12-11T11:20:15.441Z,99267.31
2023-12-11T11:21:21.156Z,99266.50
2023-12-11T11:22:32.481Z,99270.44
2023-12-11T11:23:47.087Z,99275.59
2023-12-11T11:24:53.659Z,99277.09
2023-12-11T11:26:01.202Z,99280.22
2023-12-11T11:27:25.597Z,99277.38
2023-12-11T11:28:42.837Z,99281.03
2023-12-11T11:29:47.503Z,99278.03
2023-12-11T11:30:52.972Z,99276.63
2023-12-11T11:32:01.492Z,99277.31
2023-12-11T11:33:06.362Z,99264.78
2023-12-11T11:34:09.922Z,99267.09
2023-12-11T11:35:55.631Z,99265.25
2023-12-11T11:36:59.467Z,99263.25
2023-12-11T11:38:03.362Z,99270.41
2023-12-11T11:39:09.793Z,99269.22
2023-12-11T11:40:33.747Z,99258.38
2023-12-11T11:41:40.338Z,99264.16
2023-12-11T11:42:43.804Z,99269.97
2023-12-11T11:43:57.974Z,99271.91
2023-12-11T11:45:09.234Z,99268.41
2023-12-11T11:46:13.167Z,99265.91
2023-12-11T11:47:21.777Z,99269.78
2023-12-11T11:48:42.885Z,99266.28
2023-12-11T11:49:49.560Z,99264.63
2023-12-11T11:50:55.490Z,99260.94
2023-12-11T11:52:07.053Z,99263.59
2023-12-11T11:53:15.234Z,99265.44
2023-12-11T11:54:25.974Z,99263.81
2023-12-11T11:55:32.495Z,99267.50
2023-12-11T11:56:49.083Z,99261.31
2023-12-11T11:57:53.086Z,99267.66
2023-12-11T11:59:06.791Z,99260.69
2023-12-11T12:00:12.178Z,99264.34
2023-12-11T12:01:18.682Z,99267.75
2023-12-11T12:02:23.604Z,99257.72
2023-12-11T12:03:27.447Z,99254.06
2023-12-11T12:04:37.037Z,99257.56
2023-12-11T12:05:56.224Z,99252.22
2023-12-11T12:07:05.739Z,99253.88
2023-12-11T12:08:09.982Z,99256.53
2023-12-11T12:09:21.520Z,99258.00
2023-12-11T12:10:26.049Z,99259.00
2023-12-11T12:11:38.236Z,99258.84
2023-12-11T12:12:42.115Z,99251.19
2023-12-11T12:13:48.753Z,99250.00
2023-12-11T12:15:01.990Z,99254.31
2023-12-11T12:16:09.820Z,99253.66
2023-12-11T12:17:13.778Z,99244.03
2023-12-11T12:18:20.254Z,99251.66
2023-12-11T12:19:35.082Z,99247.16
2023-12-11T12:20:42.140Z,99242.63
2023-12-11T12:21:55.711Z,99247.59
2023-12-11T12:23:03.001Z,99257.44
2023-12-11T12:24:07.644Z,99254.63
2023-12-11T12:25:18.895Z,99246.78
2023-12-11T12:26:23.884Z,99238.97
2023-12-11T12:27:35.458Z,99243.94
2023-12-11T12:28:39.620Z,99242.47
2023-12-11T12:29:46.201Z,99252.13
2023-12-11T12:30:50.417Z,99240.81
2023-12-11T12:31:58.645Z,99243.28
2023-12-11T12:33:06.076Z,99243.28
2023-12-11T12:34:13.182Z,99245.13
2023-12-11T12:35:17.246Z,99242.28
2023-12-11T12:36:23.890Z,99242.47
2023-12-11T12:37:28.610Z,99235.28
2023-12-11T12:38:35.428Z,99227.28
2023-12-11T12:39:39.741Z,99238.78
2023-12-11T12:40:46.601Z,99236.31
2023-12-11T12:41:53.793Z,99244.13
2023-12-11T12:43:05.373Z,99240.47
2023-12-11T12:44:09.238Z,99237.97
2023-12-11T12:45:35.977Z,99228.47
2023-12-11T12:46:44.042Z,99236.31
2023-12-11T12:47:51.412Z,99239.81
2023-12-11T12:48:55.278Z,99236.31
2023-12-11T12:50:02.136Z,99237.78
2023-12-11T12:51:08.250Z,99228.94
2023-12-11T12:52:15.081Z,99225.44
2023-12-11T12:53:20.261Z,99234.72
2023-12-11T12:54:26.924Z,99231.06
2023-12-11T12:55:30.993Z,99233.09
2023-12-11T12:56:37.678Z,99227.94
2023-12-11T12:57:43.348Z,99228.41
2023-12-11T12:58:55.246Z,99224.56
2023-12-11T12:59:58.362Z,99228.88
2023-12-11T13:01:04.867Z,99231.34
2023-12-11T13:02:13.468Z,99228.66
2023-12-11T13:03:22.049Z,99217.81
2023-12-11T13:04:25.940Z,99223.97
2023-12-11T13:05:43.770Z,99225.63
2023-12-11T13:06:48.083Z,99223.63